sensor_id;sensor_type;location;lat;lon;timestamp;temperature;humidity
13976;DHT22;7062;49.792;9.946;2022-09-09T00:06:46;16.70;99.90
13976;DHT22;7062;49.792;9.946;2022-09-09T00:09:17;16.60;99.90
13976;DHT22;7062;49.792;9.946;2022-09-09T00:14:54;16.60;99.90
13976;DHT22;7062;49.792;9.946;2022-09-09T00:23:00;16.70;99.90
13976;DHT22;7062;49.792;9.946;2022-09-09T00:25:46;16.80;99.90
13976;DHT22;7062;49.792;9.946;2022-09-09T00:28:25;16.70;99.90
13976;DHT22;7062;49.792;9.946;2022-09-09T00:30:52;16.60;99.90
13976;DHT22;7062;49.792;9.946;2022-09-09T00:33:22;16.50;99.90
13976;DHT22;7062;49.792;9.946;2022-09-09T00:35:58;16.50;99.90
13976;DHT22;7062;49.792;9.946;2022-09-09T00:38:33;16.50;99.90
13976;DHT22;7062;49.792;9.946;2022-09-09T00:44:00;16.50;99.90
13976;DHT22;7062;49.792;9.946;2022-09-09T00:52:15;16.90;99.90
13976;DHT22;7062;49.792;9.946;2022-09-09T00:55:05;17.00;99.90
13976;DHT22;7062;49.792;9.946;2022-09-09T00:57:35;17.10;99.90
13976;DHT22;7062;49.792;9.946;2022-09-09T01:08:01;16.70;99.90
13976;DHT22;7062;49.792;9.946;2022-09-09T01:13:26;16.80;99.90
13976;DHT22;7062;49.792;9.946;2022-09-09T01:15:53;16.70;99.90
13976;DHT22;7062;49.792;9.946;2022-09-09T01:18:21;16.80;99.90
13976;DHT22;7062;49.792;9.946;2022-09-09T01:28:55;17.00;99.90
13976;DHT22;7062;49.792;9.946;2022-09-09T01:31:31;16.90;99.90
13976;DHT22;7062;49.792;9.946;2022-09-09T01:33:58;16.90;99.90
13976;DHT22;7062;49.792;9.946;2022-09-09T01:36:34;16.90;99.90
13976;DHT22;7062;49.792;9.946;2022-09-09T01:39:03;16.90;99.90
13976;DHT22;7062;49.792;9.946;2022-09-09T01:41:29;16.90;99.90
13976;DHT22;7062;49.792;9.946;2022-09-09T01:43:55;16.90;99.90
13976;DHT22;7062;49.792;9.946;2022-09-09T01:46:22;17.00;99.90
13976;DHT22;7062;49.792;9.946;2022-09-09T01:48:50;17.10;99.90
13976;DHT22;7062;49.792;9.946;2022-09-09T01:51:17;17.10;99.90
13976;DHT22;7062;49.792;9.946;2022-09-09T01:53:43;17.00;99.90
13976;DHT22;7062;49.792;9.946;2022-09-09T02:06:54;17.00;99.90
13976;DHT22;7062;49.792;9.946;2022-09-09T02:09:23;16.80;99.90
13976;DHT22;7062;49.792;9.946;2022-09-09T02:11:56;16.70;99.90
13976;DHT22;7062;49.792;9.946;2022-09-09T02:14:31;16.60;99.90
13976;DHT22;7062;49.792;9.946;2022-09-09T02:17:06;16.50;99.90
13976;DHT22;7062;49.792;9.946;2022-09-09T02:19:37;16.40;99.90
13976;DHT22;7062;49.792;9.946;2022-09-09T02:22:04;16.40;99.90
13976;DHT22;7062;49.792;9.946;2022-09-09T02:24:34;16.40;99.90
13976;DHT22;7062;49.792;9.946;2022-09-09T02:27:03;16.40;99.90
13976;DHT22;7062;49.792;9.946;2022-09-09T02:29:35;16.30;99.90
13976;DHT22;7062;49.792;9.946;2022-09-09T02:32:06;16.30;99.90
13976;DHT22;7062;49.792;9.946;2022-09-09T02:34:36;16.40;99.90
13976;DHT22;7062;49.792;9.946;2022-09-09T02:37:06;16.30;99.90
13976;DHT22;7062;49.792;9.946;2022-09-09T02:39:33;16.30;99.90
13976;DHT22;7062;49.792;9.946;2022-09-09T02:41:59;16.20;99.90
13976;DHT22;7062;49.792;9.946;2022-09-09T02:44:25;16.20;99.90
13976;DHT22;7062;49.792;9.946;2022-09-09T02:52:13;16.00;99.90
13976;DHT22;7062;49.792;9.946;2022-09-09T02:54:41;16.00;99.90
13976;DHT22;7062;49.792;9.946;2022-09-09T02:57:10;15.90;99.90
13976;DHT22;7062;49.792;9.946;2022-09-09T02:59:37;16.00;99.90
13976;DHT22;7062;49.792;9.946;2022-09-09T03:02:03;16.20;99.90
13976;DHT22;7062;49.792;9.946;2022-09-09T03:04:29;16.10;99.90
13976;DHT22;7062;49.792;9.946;2022-09-09T03:06:57;16.20;99.90
13976;DHT22;7062;49.792;9.946;2022-09-09T03:09:23;16.20;99.90
13976;DHT22;7062;49.792;9.946;2022-09-09T03:11:49;16.30;99.90
13976;DHT22;7062;49.792;9.946;2022-09-09T03:14:15;16.20;99.90
13976;DHT22;7062;49.792;9.946;2022-09-09T03:16:41;16.20;99.90
13976;DHT22;7062;49.792;9.946;2022-09-09T03:19:08;16.30;99.90
13976;DHT22;7062;49.792;9.946;2022-09-09T03:21:34;16.20;99.90
13976;DHT22;7062;49.792;9.946;2022-09-09T03:24:01;16.20;99.90
13976;DHT22;7062;49.792;9.946;2022-09-09T03:26:29;16.20;99.90
13976;DHT22;7062;49.792;9.946;2022-09-09T03:28:56;16.30;99.90
13976;DHT22;7062;49.792;9.946;2022-09-09T03:31:21;16.30;99.90
13976;DHT22;7062;49.792;9.946;2022-09-09T03:33:47;16.40;99.90
13976;DHT22;7062;49.792;9.946;2022-09-09T03:36:14;16.50;99.90
13976;DHT22;7062;49.792;9.946;2022-09-09T03:38:40;16.50;99.90
13976;DHT22;7062;49.792;9.946;2022-09-09T03:41:06;16.50;99.90
13976;DHT22;7062;49.792;9.946;2022-09-09T03:43:33;16.50;99.90
13976;DHT22;7062;49.792;9.946;2022-09-09T03:45:59;16.40;99.90
13976;DHT22;7062;49.792;9.946;2022-09-09T03:48:25;16.40;99.90
13976;DHT22;7062;49.792;9.946;2022-09-09T03:50:53;16.40;99.90
13976;DHT22;7062;49.792;9.946;2022-09-09T03:53:21;16.50;99.90
13976;DHT22;7062;49.792;9.946;2022-09-09T03:55:48;16.50;99.90
13976;DHT22;7062;49.792;9.946;2022-09-09T03:58:16;16.60;99.90
13976;DHT22;7062;49.792;9.946;2022-09-09T04:00:52;16.70;99.90
13976;DHT22;7062;49.792;9.946;2022-09-09T04:03:18;16.70;99.90
13976;DHT22;7062;49.792;9.946;2022-09-09T04:05:43;16.70;99.90
13976;DHT22;7062;49.792;9.946;2022-09-09T04:08:09;16.70;99.90
13976;DHT22;7062;49.792;9.946;2022-09-09T04:10:35;16.80;99.90
13976;DHT22;7062;49.792;9.946;2022-09-09T04:13:03;16.80;99.90
13976;DHT22;7062;49.792;9.946;2022-09-09T04:15:30;16.80;99.90
13976;DHT22;7062;49.792;9.946;2022-09-09T04:17:56;16.90;99.90
13976;DHT22;7062;49.792;9.946;2022-09-09T04:20:21;16.90;99.90
13976;DHT22;7062;49.792;9.946;2022-09-09T04:22:47;16.80;99.90
13976;DHT22;7062;49.792;9.946;2022-09-09T04:25:13;16.70;99.90
13976;DHT22;7062;49.792;9.946;2022-09-09T04:27:39;16.80;99.90
13976;DHT22;7062;49.792;9.946;2022-09-09T04:30:06;16.70;99.90
13976;DHT22;7062;49.792;9.946;2022-09-09T04:32:33;16.60;99.90
13976;DHT22;7062;49.792;9.946;2022-09-09T04:34:59;16.40;99.90
13976;DHT22;7062;49.792;9.946;2022-09-09T04:37:25;16.40;99.90
13976;DHT22;7062;49.792;9.946;2022-09-09T04:39:50;16.40;99.90
13976;DHT22;7062;49.792;9.946;2022-09-09T04:42:16;16.40;99.90
13976;DHT22;7062;49.792;9.946;2022-09-09T04:44:44;16.30;99.90
13976;DHT22;7062;49.792;9.946;2022-09-09T04:47:10;16.30;99.90
13976;DHT22;7062;49.792;9.946;2022-09-09T04:49:36;16.20;99.90
13976;DHT22;7062;49.792;9.946;2022-09-09T04:52:03;16.20;99.90
13976;DHT22;7062;49.792;9.946;2022-09-09T04:54:29;16.20;99.90
13976;DHT22;7062;49.792;9.946;2022-09-09T04:56:55;16.20;99.90
13976;DHT22;7062;49.792;9.946;2022-09-09T04:59:21;16.20;99.90
13976;DHT22;7062;49.792;9.946;2022-09-09T05:01:47;16.20;99.90
13976;DHT22;7062;49.792;9.946;2022-09-09T05:04:13;16.20;99.90
13976;DHT22;7062;49.792;9.946;2022-09-09T05:06:40;16.20;99.90
13976;DHT22;7062;49.792;9.946;2022-09-09T05:09:07;16.20;99.90
13976;DHT22;7062;49.792;9.946;2022-09-09T05:11:34;16.20;99.90
13976;DHT22;7062;49.792;9.946;2022-09-09T05:14:02;16.30;99.90
13976;DHT22;7062;49.792;9.946;2022-09-09T05:16:28;16.40;99.90
13976;DHT22;7062;49.792;9.946;2022-09-09T05:18:53;16.40;99.90
13976;DHT22;7062;49.792;9.946;2022-09-09T05:21:20;16.50;99.90
13976;DHT22;7062;49.792;9.946;2022-09-09T05:23:46;16.40;99.90
13976;DHT22;7062;49.792;9.946;2022-09-09T05:26:14;16.40;99.90
13976;DHT22;7062;49.792;9.946;2022-09-09T05:28:40;16.40;99.90
13976;DHT22;7062;49.792;9.946;2022-09-09T05:31:08;16.50;99.90
13976;DHT22;7062;49.792;9.946;2022-09-09T05:33:35;16.50;99.90
13976;DHT22;7062;49.792;9.946;2022-09-09T05:36:08;16.50;99.90
13976;DHT22;7062;49.792;9.946;2022-09-09T05:38:36;16.50;99.90
13976;DHT22;7062;49.792;9.946;2022-09-09T05:41:02;16.50;99.90
13976;DHT22;7062;49.792;9.946;2022-09-09T05:43:29;16.50;99.90
13976;DHT22;7062;49.792;9.946;2022-09-09T05:46:05;16.50;99.90
13976;DHT22;7062;49.792;9.946;2022-09-09T05:48:32;16.40;99.90
13976;DHT22;7062;49.792;9.946;2022-09-09T05:51:00;16.40;99.90
13976;DHT22;7062;49.792;9.946;2022-09-09T05:53:26;16.50;99.90
13976;DHT22;7062;49.792;9.946;2022-09-09T05:56:04;16.60;99.90
13976;DHT22;7062;49.792;9.946;2022-09-09T05:58:34;16.60;99.90
13976;DHT22;7062;49.792;9.946;2022-09-09T06:01:06;16.70;99.90
13976;DHT22;7062;49.792;9.946;2022-09-09T06:03:36;16.60;99.90
13976;DHT22;7062;49.792;9.946;2022-09-09T06:06:07;16.70;99.90
13976;DHT22;7062;49.792;9.946;2022-09-09T06:08:35;16.70;99.90
13976;DHT22;7062;49.792;9.946;2022-09-09T06:11:23;16.70;99.90
13976;DHT22;7062;49.792;9.946;2022-09-09T06:13:50;16.80;99.90
13976;DHT22;7062;49.792;9.946;2022-09-09T06:16:20;16.90;99.90
13976;DHT22;7062;49.792;9.946;2022-09-09T06:18:48;16.90;99.90
13976;DHT22;7062;49.792;9.946;2022-09-09T06:21:22;16.70;99.90
13976;DHT22;7062;49.792;9.946;2022-09-09T06:23:48;16.80;99.90
13976;DHT22;7062;49.792;9.946;2022-09-09T06:26:29;16.70;99.90
13976;DHT22;7062;49.792;9.946;2022-09-09T06:28:56;16.70;99.90
13976;DHT22;7062;49.792;9.946;2022-09-09T06:31:25;16.70;99.90
13976;DHT22;7062;49.792;9.946;2022-09-09T06:33:53;16.70;99.90
13976;DHT22;7062;49.792;9.946;2022-09-09T06:36:20;16.70;99.90
13976;DHT22;7062;49.792;9.946;2022-09-09T06:38:46;16.70;99.90
13976;DHT22;7062;49.792;9.946;2022-09-09T06:41:14;16.70;99.90
13976;DHT22;7062;49.792;9.946;2022-09-09T06:43:40;16.70;99.90
13976;DHT22;7062;49.792;9.946;2022-09-09T06:46:14;16.70;99.90
13976;DHT22;7062;49.792;9.946;2022-09-09T06:48:40;16.70;99.90
13976;DHT22;7062;49.792;9.946;2022-09-09T06:51:07;16.80;99.90
13976;DHT22;7062;49.792;9.946;2022-09-09T06:53:35;16.70;99.90
13976;DHT22;7062;49.792;9.946;2022-09-09T06:56:13;16.80;99.90
13976;DHT22;7062;49.792;9.946;2022-09-09T06:58:42;16.80;99.90
13976;DHT22;7062;49.792;9.946;2022-09-09T07:01:14;16.90;99.90
13976;DHT22;7062;49.792;9.946;2022-09-09T07:03:40;17.00;99.90
13976;DHT22;7062;49.792;9.946;2022-09-09T07:06:07;17.00;99.90
13976;DHT22;7062;49.792;9.946;2022-09-09T07:08:34;17.00;99.90
13976;DHT22;7062;49.792;9.946;2022-09-09T07:11:04;17.10;99.90
13976;DHT22;7062;49.792;9.946;2022-09-09T07:13:31;17.20;99.90
13976;DHT22;7062;49.792;9.946;2022-09-09T07:16:08;17.40;99.90
13976;DHT22;7062;49.792;9.946;2022-09-09T07:18:34;17.60;99.90
13976;DHT22;7062;49.792;9.946;2022-09-09T07:21:01;17.80;99.90
13976;DHT22;7062;49.792;9.946;2022-09-09T07:23:28;17.90;99.90
13976;DHT22;7062;49.792;9.946;2022-09-09T07:25:53;18.00;99.90
13976;DHT22;7062;49.792;9.946;2022-09-09T07:28:20;18.10;99.90
13976;DHT22;7062;49.792;9.946;2022-09-09T07:31:00;18.10;99.90
13976;DHT22;7062;49.792;9.946;2022-09-09T07:33:29;18.30;99.90
13976;DHT22;7062;49.792;9.946;2022-09-09T07:36:13;18.40;99.90
13976;DHT22;7062;49.792;9.946;2022-09-09T07:38:40;18.70;99.90
13976;DHT22;7062;49.792;9.946;2022-09-09T07:41:08;18.70;99.90
13976;DHT22;7062;49.792;9.946;2022-09-09T07:43:41;18.80;99.90
13976;DHT22;7062;49.792;9.946;2022-09-09T07:46:09;18.90;99.90
13976;DHT22;7062;49.792;9.946;2022-09-09T07:48:35;19.20;99.90
13976;DHT22;7062;49.792;9.946;2022-09-09T07:51:10;19.20;99.90
13976;DHT22;7062;49.792;9.946;2022-09-09T07:53:38;19.30;99.90
13976;DHT22;7062;49.792;9.946;2022-09-09T07:56:08;19.10;99.90
13976;DHT22;7062;49.792;9.946;2022-09-09T07:58:35;18.90;99.90
13976;DHT22;7062;49.792;9.946;2022-09-09T08:01:49;19.10;99.90
13976;DHT22;7062;49.792;9.946;2022-09-09T08:03:58;19.40;99.90
13976;DHT22;7062;49.792;9.946;2022-09-09T08:06:32;19.50;99.90
13976;DHT22;7062;49.792;9.946;2022-09-09T08:09:01;19.70;99.90
13976;DHT22;7062;49.792;9.946;2022-09-09T08:11:29;19.90;99.90
13976;DHT22;7062;49.792;9.946;2022-09-09T08:13:55;19.80;99.90
13976;DHT22;7062;49.792;9.946;2022-09-09T08:16:26;19.80;99.90
13976;DHT22;7062;49.792;9.946;2022-09-09T08:18:53;19.70;99.90
13976;DHT22;7062;49.792;9.946;2022-09-09T08:21:23;19.90;99.90
13976;DHT22;7062;49.792;9.946;2022-09-09T08:23:51;20.10;99.90
13976;DHT22;7062;49.792;9.946;2022-09-09T08:26:20;20.30;99.90
13976;DHT22;7062;49.792;9.946;2022-09-09T08:28:50;20.50;99.90
13976;DHT22;7062;49.792;9.946;2022-09-09T08:33:44;20.80;99.90
13976;DHT22;7062;49.792;9.946;2022-09-09T08:36:13;20.90;99.90
13976;DHT22;7062;49.792;9.946;2022-09-09T08:38:41;20.80;99.90
13976;DHT22;7062;49.792;9.946;2022-09-09T08:43:41;20.80;99.90
13976;DHT22;7062;49.792;9.946;2022-09-09T08:46:15;20.70;99.90
13976;DHT22;7062;49.792;9.946;2022-09-09T08:51:25;20.80;99.90
13976;DHT22;7062;49.792;9.946;2022-09-09T08:53:52;20.70;99.90
13976;DHT22;7062;49.792;9.946;2022-09-09T08:56:24;21.50;99.90
13976;DHT22;7062;49.792;9.946;2022-09-09T08:58:53;21.50;99.90
13976;DHT22;7062;49.792;9.946;2022-09-09T09:09:55;23.00;99.90
13976;DHT22;7062;49.792;9.946;2022-09-09T09:12:27;23.40;99.90
13976;DHT22;7062;49.792;9.946;2022-09-09T09:14:54;24.30;99.90
13976;DHT22;7062;49.792;9.946;2022-09-09T09:17:24;24.90;99.90
13976;DHT22;7062;49.792;9.946;2022-09-09T09:19:50;25.50;99.90
13976;DHT22;7062;49.792;9.946;2022-09-09T09:22:22;25.40;99.90
13976;DHT22;7062;49.792;9.946;2022-09-09T09:24:56;25.90;99.90
13976;DHT22;7062;49.792;9.946;2022-09-09T09:30:13;24.30;99.90
13976;DHT22;7062;49.792;9.946;2022-09-09T09:32:49;25.20;99.90
13976;DHT22;7062;49.792;9.946;2022-09-09T09:35:16;25.90;99.90
13976;DHT22;7062;49.792;9.946;2022-09-09T09:37:42;26.80;99.90
13976;DHT22;7062;49.792;9.946;2022-09-09T09:40:15;27.20;99.50
13976;DHT22;7062;49.792;9.946;2022-09-09T09:45:44;28.20;97.30
13976;DHT22;7062;49.792;9.946;2022-09-09T09:48:12;28.20;96.10
13976;DHT22;7062;49.792;9.946;2022-09-09T09:50:54;28.20;95.30
13976;DHT22;7062;49.792;9.946;2022-09-09T09:53:31;29.20;93.90
13976;DHT22;7062;49.792;9.946;2022-09-09T09:56:06;28.80;93.80
13976;DHT22;7062;49.792;9.946;2022-09-09T10:01:28;28.20;93.60
13976;DHT22;7062;49.792;9.946;2022-09-09T10:04:18;29.30;92.50
13976;DHT22;7062;49.792;9.946;2022-09-09T10:06:45;28.20;93.60
13976;DHT22;7062;49.792;9.946;2022-09-09T10:09:29;28.50;93.30
13976;DHT22;7062;49.792;9.946;2022-09-09T10:14:56;28.80;91.90
13976;DHT22;7062;49.792;9.946;2022-09-09T10:20:22;26.40;93.10
13976;DHT22;7062;49.792;9.946;2022-09-09T10:23:00;24.40;95.60
13976;DHT22;7062;49.792;9.946;2022-09-09T10:25:43;23.50;96.80
13976;DHT22;7062;49.792;9.946;2022-09-09T10:28:31;23.00;98.20
13976;DHT22;7062;49.792;9.946;2022-09-09T10:36:46;23.40;97.90
13976;DHT22;7062;49.792;9.946;2022-09-09T10:39:35;23.30;98.90
13976;DHT22;7062;49.792;9.946;2022-09-09T10:42:06;23.00;99.90
13976;DHT22;7062;49.792;9.946;2022-09-09T10:50:29;18.20;99.90
13976;DHT22;7062;49.792;9.946;2022-09-09T10:53:02;17.50;99.90
13976;DHT22;7062;49.792;9.946;2022-09-09T10:55:48;17.20;99.90
13976;DHT22;7062;49.792;9.946;2022-09-09T10:58:36;17.10;99.90
13976;DHT22;7062;49.792;9.946;2022-09-09T11:01:29;17.20;99.90
13976;DHT22;7062;49.792;9.946;2022-09-09T11:04:02;17.50;99.90
13976;DHT22;7062;49.792;9.946;2022-09-09T11:06:34;17.90;99.90
13976;DHT22;7062;49.792;9.946;2022-09-09T11:09:02;18.10;99.90
13976;DHT22;7062;49.792;9.946;2022-09-09T11:11:44;18.50;99.90
13976;DHT22;7062;49.792;9.946;2022-09-09T11:14:18;19.50;99.90
13976;DHT22;7062;49.792;9.946;2022-09-09T11:16:52;21.00;99.90
13976;DHT22;7062;49.792;9.946;2022-09-09T11:19:38;21.50;99.90
13976;DHT22;7062;49.792;9.946;2022-09-09T11:25:07;22.00;99.90
13976;DHT22;7062;49.792;9.946;2022-09-09T11:30:56;22.80;99.90
13976;DHT22;7062;49.792;9.946;2022-09-09T11:41:42;31.30;99.30
13976;DHT22;7062;49.792;9.946;2022-09-09T11:44:12;32.90;96.40
13976;DHT22;7062;49.792;9.946;2022-09-09T11:46:42;33.80;92.90
13976;DHT22;7062;49.792;9.946;2022-09-09T11:49:28;34.30;92.20
13976;DHT22;7062;49.792;9.946;2022-09-09T11:51:53;34.10;90.10
13976;DHT22;7062;49.792;9.946;2022-09-09T11:54:31;33.30;89.70
13976;DHT22;7062;49.792;9.946;2022-09-09T11:56:57;32.40;89.80
13976;DHT22;7062;49.792;9.946;2022-09-09T11:59:31;31.20;91.30
13976;DHT22;7062;49.792;9.946;2022-09-09T12:02:02;29.10;92.90
13976;DHT22;7062;49.792;9.946;2022-09-09T12:04:29;26.70;97.00
13976;DHT22;7062;49.792;9.946;2022-09-09T12:07:00;25.20;99.90
13976;DHT22;7062;49.792;9.946;2022-09-09T12:15:46;23.00;99.90
13976;DHT22;7062;49.792;9.946;2022-09-09T12:17:45;23.60;99.90
13976;DHT22;7062;49.792;9.946;2022-09-09T12:23:10;30.30;96.50
13976;DHT22;7062;49.792;9.946;2022-09-09T12:28:43;32.60;91.10
13976;DHT22;7062;49.792;9.946;2022-09-09T12:31:17;32.10;90.70
13976;DHT22;7062;49.792;9.946;2022-09-09T12:33:47;30.00;92.20
13976;DHT22;7062;49.792;9.946;2022-09-09T12:36:19;27.50;92.90
13976;DHT22;7062;49.792;9.946;2022-09-09T12:38:46;25.50;97.50
13976;DHT22;7062;49.792;9.946;2022-09-09T12:41:26;24.40;99.90
13976;DHT22;7062;49.792;9.946;2022-09-09T12:44:04;23.70;99.90
13976;DHT22;7062;49.792;9.946;2022-09-09T12:46:42;23.40;99.90
13976;DHT22;7062;49.792;9.946;2022-09-09T12:51:53;26.90;99.90
13976;DHT22;7062;49.792;9.946;2022-09-09T12:54:19;29.50;96.20
13976;DHT22;7062;49.792;9.946;2022-09-09T12:56:46;31.00;94.30
13976;DHT22;7062;49.792;9.946;2022-09-09T12:59:36;32.50;91.00
13976;DHT22;7062;49.792;9.946;2022-09-09T13:02:21;30.90;90.80
13976;DHT22;7062;49.792;9.946;2022-09-09T13:04:48;31.10;91.00
13976;DHT22;7062;49.792;9.946;2022-09-09T13:07:16;30.10;90.80
13976;DHT22;7062;49.792;9.946;2022-09-09T13:09:46;30.00;91.50
13976;DHT22;7062;49.792;9.946;2022-09-09T13:12:19;29.00;91.40
13976;DHT22;7062;49.792;9.946;2022-09-09T13:14:52;26.80;94.00
13976;DHT22;7062;49.792;9.946;2022-09-09T13:17:23;25.20;96.90
13976;DHT22;7062;49.792;9.946;2022-09-09T13:19:50;24.30;98.30
13976;DHT22;7062;49.792;9.946;2022-09-09T13:22:37;23.80;99.90
13976;DHT22;7062;49.792;9.946;2022-09-09T13:27:41;23.60;99.90
13976;DHT22;7062;49.792;9.946;2022-09-09T13:33:17;23.90;99.90
13976;DHT22;7062;49.792;9.946;2022-09-09T13:35:54;26.20;96.70
13976;DHT22;7062;49.792;9.946;2022-09-09T13:38:20;28.30;93.80
13976;DHT22;7062;49.792;9.946;2022-09-09T13:41:02;29.60;89.10
13976;DHT22;7062;49.792;9.946;2022-09-09T13:43:31;28.30;91.00
13976;DHT22;7062;49.792;9.946;2022-09-09T13:46:01;28.30;90.70
13976;DHT22;7062;49.792;9.946;2022-09-09T13:48:27;29.50;89.50
13976;DHT22;7062;49.792;9.946;2022-09-09T13:51:02;29.60;87.40
13976;DHT22;7062;49.792;9.946;2022-09-09T13:53:29;29.90;85.00
13976;DHT22;7062;49.792;9.946;2022-09-09T13:55:55;29.40;85.60
13976;DHT22;7062;49.792;9.946;2022-09-09T13:58:22;27.60;86.40
13976;DHT22;7062;49.792;9.946;2022-09-09T14:00:50;25.90;90.30
13976;DHT22;7062;49.792;9.946;2022-09-09T14:03:16;25.00;91.60
13976;DHT22;7062;49.792;9.946;2022-09-09T14:05:42;24.40;92.90
13976;DHT22;7062;49.792;9.946;2022-09-09T14:08:15;23.80;93.70
13976;DHT22;7062;49.792;9.946;2022-09-09T14:10:41;23.50;95.00
13976;DHT22;7062;49.792;9.946;2022-09-09T14:13:07;23.30;96.00
13976;DHT22;7062;49.792;9.946;2022-09-09T14:15:33;23.00;96.50
13976;DHT22;7062;49.792;9.946;2022-09-09T14:17:59;22.60;98.00
13976;DHT22;7062;49.792;9.946;2022-09-09T14:20:24;22.50;98.70
13976;DHT22;7062;49.792;9.946;2022-09-09T14:22:50;22.60;99.00
13976;DHT22;7062;49.792;9.946;2022-09-09T14:25:16;23.00;98.40
13976;DHT22;7062;49.792;9.946;2022-09-09T14:27:41;23.50;98.10
13976;DHT22;7062;49.792;9.946;2022-09-09T14:30:08;24.80;97.30
13976;DHT22;7062;49.792;9.946;2022-09-09T14:32:34;26.50;94.40
13976;DHT22;7062;49.792;9.946;2022-09-09T14:34:59;26.90;92.20
13976;DHT22;7062;49.792;9.946;2022-09-09T14:37:25;25.90;93.40
13976;DHT22;7062;49.792;9.946;2022-09-09T14:39:52;24.80;94.40
13976;DHT22;7062;49.792;9.946;2022-09-09T14:42:19;24.00;95.90
13976;DHT22;7062;49.792;9.946;2022-09-09T14:44:45;23.50;96.70
13976;DHT22;7062;49.792;9.946;2022-09-09T14:47:10;23.20;97.00
13976;DHT22;7062;49.792;9.946;2022-09-09T14:49:36;22.90;97.10
13976;DHT22;7062;49.792;9.946;2022-09-09T14:52:02;22.60;97.10
13976;DHT22;7062;49.792;9.946;2022-09-09T14:54:28;22.40;99.20
13976;DHT22;7062;49.792;9.946;2022-09-09T14:56:54;21.30;99.90
13976;DHT22;7062;49.792;9.946;2022-09-09T14:59:20;20.90;99.90
13976;DHT22;7062;49.792;9.946;2022-09-09T15:01:45;20.70;99.90
13976;DHT22;7062;49.792;9.946;2022-09-09T15:04:12;20.70;99.90
13976;DHT22;7062;49.792;9.946;2022-09-09T15:06:41;20.90;99.90
13976;DHT22;7062;49.792;9.946;2022-09-09T15:09:09;21.10;99.90
13976;DHT22;7062;49.792;9.946;2022-09-09T15:11:36;21.30;99.90
13976;DHT22;7062;49.792;9.946;2022-09-09T15:14:04;21.20;99.90
13976;DHT22;7062;49.792;9.946;2022-09-09T15:16:30;21.10;99.90
13976;DHT22;7062;49.792;9.946;2022-09-09T15:18:59;21.30;99.90
13976;DHT22;7062;49.792;9.946;2022-09-09T15:21:27;21.20;99.90
13976;DHT22;7062;49.792;9.946;2022-09-09T15:23:54;21.30;99.90
13976;DHT22;7062;49.792;9.946;2022-09-09T15:26:20;21.10;99.90
13976;DHT22;7062;49.792;9.946;2022-09-09T15:28:47;20.90;99.90
13976;DHT22;7062;49.792;9.946;2022-09-09T15:33:54;21.10;99.90
13976;DHT22;7062;49.792;9.946;2022-09-09T15:36:30;21.30;99.90
13976;DHT22;7062;49.792;9.946;2022-09-09T15:38:58;21.40;99.90
13976;DHT22;7062;49.792;9.946;2022-09-09T15:41:24;21.70;99.90
13976;DHT22;7062;49.792;9.946;2022-09-09T15:43:52;23.00;99.90
13976;DHT22;7062;49.792;9.946;2022-09-09T15:46:41;24.50;99.90
13976;DHT22;7062;49.792;9.946;2022-09-09T15:51:43;25.00;99.90
13976;DHT22;7062;49.792;9.946;2022-09-09T15:54:17;24.50;99.90
13976;DHT22;7062;49.792;9.946;2022-09-09T15:56:44;24.60;99.90
13976;DHT22;7062;49.792;9.946;2022-09-09T15:59:10;25.00;99.90
13976;DHT22;7062;49.792;9.946;2022-09-09T16:01:37;25.30;99.90
13976;DHT22;7062;49.792;9.946;2022-09-09T16:04:04;25.90;99.90
13976;DHT22;7062;49.792;9.946;2022-09-09T16:06:30;26.30;99.90
13976;DHT22;7062;49.792;9.946;2022-09-09T16:08:57;27.40;99.90
13976;DHT22;7062;49.792;9.946;2022-09-09T16:11:49;27.70;97.80
13976;DHT22;7062;49.792;9.946;2022-09-09T16:14:15;26.80;98.30
13976;DHT22;7062;49.792;9.946;2022-09-09T16:16:41;25.80;98.70
13976;DHT22;7062;49.792;9.946;2022-09-09T16:19:09;25.20;99.40
13976;DHT22;7062;49.792;9.946;2022-09-09T16:21:41;25.00;99.90
13976;DHT22;7062;49.792;9.946;2022-09-09T16:24:09;24.70;99.90
13976;DHT22;7062;49.792;9.946;2022-09-09T16:26:36;24.00;99.90
13976;DHT22;7062;49.792;9.946;2022-09-09T16:29:03;23.20;99.90
13976;DHT22;7062;49.792;9.946;2022-09-09T16:31:30;22.40;99.90
13976;DHT22;7062;49.792;9.946;2022-09-09T16:33:59;21.70;99.90
13976;DHT22;7062;49.792;9.946;2022-09-09T16:36:32;21.30;99.90
13976;DHT22;7062;49.792;9.946;2022-09-09T16:39:01;21.00;99.90
13976;DHT22;7062;49.792;9.946;2022-09-09T16:41:29;20.70;99.90
13976;DHT22;7062;49.792;9.946;2022-09-09T16:43:59;20.60;99.90
13976;DHT22;7062;49.792;9.946;2022-09-09T16:46:26;20.50;99.90
13976;DHT22;7062;49.792;9.946;2022-09-09T16:48:53;20.40;99.90
13976;DHT22;7062;49.792;9.946;2022-09-09T16:51:23;20.20;99.90
13976;DHT22;7062;49.792;9.946;2022-09-09T16:53:50;20.00;99.90
13976;DHT22;7062;49.792;9.946;2022-09-09T16:56:18;19.90;99.90
13976;DHT22;7062;49.792;9.946;2022-09-09T16:58:52;19.90;99.90
13976;DHT22;7062;49.792;9.946;2022-09-09T17:01:21;19.80;99.90
13976;DHT22;7062;49.792;9.946;2022-09-09T17:03:47;19.80;99.90
13976;DHT22;7062;49.792;9.946;2022-09-09T17:06:14;19.80;99.90
13976;DHT22;7062;49.792;9.946;2022-09-09T17:08:41;19.70;99.90
13976;DHT22;7062;49.792;9.946;2022-09-09T17:11:17;19.60;99.90
13976;DHT22;7062;49.792;9.946;2022-09-09T17:13:44;19.60;99.90
13976;DHT22;7062;49.792;9.946;2022-09-09T17:16:11;19.50;99.90
13976;DHT22;7062;49.792;9.946;2022-09-09T17:18:37;19.50;99.90
13976;DHT22;7062;49.792;9.946;2022-09-09T17:21:08;19.50;99.90
13976;DHT22;7062;49.792;9.946;2022-09-09T17:23:35;19.50;99.90
13976;DHT22;7062;49.792;9.946;2022-09-09T17:26:04;19.50;99.90
13976;DHT22;7062;49.792;9.946;2022-09-09T17:28:31;19.50;99.90
13976;DHT22;7062;49.792;9.946;2022-09-09T17:30:58;19.50;99.90
13976;DHT22;7062;49.792;9.946;2022-09-09T17:33:30;19.50;99.90
13976;DHT22;7062;49.792;9.946;2022-09-09T17:35:57;19.40;99.90
13976;DHT22;7062;49.792;9.946;2022-09-09T17:38:24;19.40;99.90
13976;DHT22;7062;49.792;9.946;2022-09-09T17:40:59;19.40;99.90
13976;DHT22;7062;49.792;9.946;2022-09-09T17:43:25;19.40;99.90
13976;DHT22;7062;49.792;9.946;2022-09-09T17:45:51;19.30;99.90
13976;DHT22;7062;49.792;9.946;2022-09-09T17:48:17;19.30;99.90
13976;DHT22;7062;49.792;9.946;2022-09-09T17:50:42;19.30;99.90
13976;DHT22;7062;49.792;9.946;2022-09-09T17:53:08;19.30;99.90
13976;DHT22;7062;49.792;9.946;2022-09-09T17:55:34;19.30;99.90
13976;DHT22;7062;49.792;9.946;2022-09-09T17:58:00;19.30;99.90
13976;DHT22;7062;49.792;9.946;2022-09-09T18:00:25;19.20;99.90
13976;DHT22;7062;49.792;9.946;2022-09-09T18:02:51;19.30;99.90
13976;DHT22;7062;49.792;9.946;2022-09-09T18:05:16;19.10;99.90
13976;DHT22;7062;49.792;9.946;2022-09-09T18:07:43;19.10;99.90
13976;DHT22;7062;49.792;9.946;2022-09-09T18:10:09;19.10;99.90
13976;DHT22;7062;49.792;9.946;2022-09-09T18:12:34;19.10;99.90
13976;DHT22;7062;49.792;9.946;2022-09-09T18:15:00;19.10;99.90
13976;DHT22;7062;49.792;9.946;2022-09-09T18:17:26;19.10;99.90
13976;DHT22;7062;49.792;9.946;2022-09-09T18:19:52;19.10;99.90